CheckWX is a tool to help pilots better visualize weather data.  It is not intended as a substitute for an official pre-flight weather briefing.

14:20:24 UTC

KTME METAR
Houston Executive Airport
Houston, Texas, USA
Current

5 mins ago

KTME 221415Z AUTO 14010G16KT 9SM CLR 22/19 A3009 RMK AO2
Observed
Apr-22 @ 14:15 UTC
Wind
  • 140° at 10 KTS
  • Gusting to 16 KTS
Visibility
9 SM
Flight Rules
VFR
Cloud Levels
  • Clear skies
Temperature
22°C / 72°F
Dewpoint
19°C / 66°F
Humidity
83%
Altimeter
30.09" Hg
Pressure
1018.92 hPa
Previous

25 mins ago

KTME 221355Z AUTO 15009G14KT 8SM 21/19 A3008 RMK AO2
Observed
Apr-22 @ 13:55 UTC
Wind
  • 150° at 9 KTS
  • Gusting to 14 KTS
Visibility
8 SM
Temperature
21°C / 70°F
Dewpoint
19°C / 66°F
Humidity
88%
Altimeter
30.08" Hg
Pressure
1018.62 hPa
Previous

45 mins ago

KTME 221335Z AUTO 14009KT 7SM 20/19 A3008 RMK AO2
Observed
Apr-22 @ 13:35 UTC
Wind
  • 140° at 9 KTS
Visibility
7 SM
Temperature
20°C / 68°F
Dewpoint
19°C / 66°F
Humidity
94%
Altimeter
30.08" Hg
Pressure
1018.62 hPa